createdAt,value
2023-01-25T00:02:58.119Z,96362.22
2023-01-25T00:06:08.666Z,96359.34
2023-01-25T00:09:18.786Z,96366.81
2023-01-25T00:12:27.176Z,96364.63
2023-01-25T00:15:35.445Z,96366.91
2023-01-25T00:18:45.610Z,96369.34
2023-01-25T00:21:53.864Z,96356.00
2023-01-25T00:25:02.246Z,96354.75
2023-01-25T00:28:10.722Z,96355.25
2023-01-25T00:31:29.837Z,96362.38
2023-01-25T00:34:57.945Z,96359.34
2023-01-25T00:38:29.211Z,96356.22
2023-01-25T00:41:37.690Z,96352.88
2023-01-25T00:44:46.825Z,96357.38
2023-01-25T00:47:56.912Z,96349.50
2023-01-25T00:51:07.033Z,96348.13
2023-01-25T00:54:15.266Z,96349.50
2023-01-25T00:57:23.745Z,96357.47
2023-01-25T01:00:31.960Z,96364.28
2023-01-25T01:03:40.470Z,96365.47
2023-01-25T01:06:50.613Z,96363.03
2023-01-25T01:10:00.515Z,96360.63
2023-01-25T01:13:09.539Z,96355.16
2023-01-25T01:16:17.750Z,96351.41
2023-01-25T01:19:26.566Z,96349.81
2023-01-25T01:22:36.429Z,96367.44
2023-01-25T01:25:44.735Z,96364.16
2023-01-25T01:28:53.135Z,96358.81
2023-01-25T01:32:01.593Z,96360.41
2023-01-25T01:35:11.076Z,96353.59
2023-01-25T01:38:21.500Z,96350.13
2023-01-25T01:41:29.931Z,96350.13
2023-01-25T01:44:47.776Z,96348.44
2023-01-25T01:47:56.739Z,96351.28
2023-01-25T01:51:17.583Z,96348.38
2023-01-25T01:54:37.607Z,96344.16
2023-01-25T01:57:53.746Z,96346.56
2023-01-25T02:01:02.549Z,96345.94
2023-01-25T02:04:12.842Z,96350.56
2023-01-25T02:07:28.879Z,96350.25
2023-01-25T02:10:42.343Z,96340.69
2023-01-25T02:13:54.289Z,96345.00
2023-01-25T02:17:03.050Z,96341.53
2023-01-25T02:20:24.810Z,96337.16
2023-01-25T02:23:48.409Z,96339.97
2023-01-25T02:26:58.502Z,96339.25
2023-01-25T02:30:09.015Z,96344.25
2023-01-25T02:33:17.827Z,96343.75
2023-01-25T02:36:29.886Z,96332.75
2023-01-25T02:39:39.429Z,96330.13
2023-01-25T02:42:49.309Z,96329.91
2023-01-25T02:46:10.922Z,96315.53
2023-01-25T02:49:20.453Z,96320.56
2023-01-25T02:52:30.101Z,96319.97
2023-01-25T02:55:39.493Z,96318.78
2023-01-25T02:58:52.419Z,96314.00
2023-01-25T03:02:02.302Z,96314.72
2023-01-25T03:05:12.260Z,96307.56
2023-01-25T03:08:20.547Z,96296.88
2023-01-25T03:11:32.116Z,96302.34
2023-01-25T03:14:44.516Z,96299.50
2023-01-25T03:17:53.087Z,96298.56
2023-01-25T03:21:07.985Z,96291.84
2023-01-25T03:24:16.323Z,96299.22
2023-01-25T03:27:30.614Z,96302.56
2023-01-25T03:30:55.694Z,96306.13
2023-01-25T03:34:03.962Z,96297.72
2023-01-25T03:37:17.219Z,96297.97
2023-01-25T03:40:25.701Z,96299.75
2023-01-25T03:43:34.668Z,96289.34
2023-01-25T03:46:45.019Z,96290.19
2023-01-25T03:49:53.336Z,96296.06
2023-01-25T03:53:07.103Z,96293.88
2023-01-25T03:56:20.285Z,96294.91
2023-01-25T03:59:45.326Z,96297.25
2023-01-25T04:02:55.204Z,96301.75
2023-01-25T04:06:04.377Z,96297.34
2023-01-25T04:09:14.821Z,96291.25
2023-01-25T04:12:30.911Z,96289.78
2023-01-25T04:15:39.638Z,96293.56
2023-01-25T04:18:57.979Z,96296.41
2023-01-25T04:22:08.981Z,96292.28
2023-01-25T04:25:20.855Z,96285.50
2023-01-25T04:28:36.021Z,96291.25
2023-01-25T04:31:44.434Z,96290.31
2023-01-25T04:34:54.810Z,96281.19
2023-01-25T04:38:06.329Z,96275.31
2023-01-25T04:41:18.964Z,96269.44
2023-01-25T04:44:27.217Z,96266.72
2023-01-25T04:47:35.935Z,96268.41
2023-01-25T04:50:47.712Z,96270.91
2023-01-25T04:53:56.488Z,96263.91
2023-01-25T04:57:04.988Z,96270.47
2023-01-25T05:00:14.533Z,96261.59
2023-01-25T05:03:23.072Z,96260.03
2023-01-25T05:06:32.967Z,96253.94
2023-01-25T05:09:41.320Z,96260.25
2023-01-25T05:12:50.466Z,96255.88
2023-01-25T05:15:58.768Z,96248.50
2023-01-25T05:19:06.993Z,96246.63
2023-01-25T05:22:24.176Z,96246.94
2023-01-25T05:25:51.868Z,96249.56
2023-01-25T05:29:11.389Z,96248.00
2023-01-25T05:32:26.848Z,96249.88
2023-01-25T05:35:35.098Z,96254.19
2023-01-25T05:38:45.094Z,96247.78
2023-01-25T05:41:54.681Z,96237.28
2023-01-25T05:45:03.073Z,96236.56
2023-01-25T05:48:12.104Z,96235.84
2023-01-25T05:51:20.780Z,96228.59
2023-01-25T05:54:30.712Z,96240.16
2023-01-25T05:57:45.283Z,96240.75
2023-01-25T06:00:53.550Z,96242.03
2023-01-25T06:04:16.882Z,96235.94
2023-01-25T06:07:25.256Z,96233.97
2023-01-25T06:10:34.940Z,96238.66
2023-01-25T06:13:44.005Z,96232.06
2023-01-25T06:16:52.432Z,96226.81
2023-01-25T06:20:13.895Z,96221.69
2023-01-25T06:23:46.769Z,96215.19
2023-01-25T06:26:56.430Z,96210.91
2023-01-25T06:30:05.560Z,96217.09
2023-01-25T06:33:13.802Z,96220.00
2023-01-25T06:36:23.662Z,96224.84
2023-01-25T06:39:31.859Z,96225.25
2023-01-25T06:42:41.652Z,96226.81
2023-01-25T06:45:50.067Z,96222.31
2023-01-25T06:48:58.307Z,96217.59
2023-01-25T06:52:06.570Z,96218.97
2023-01-25T06:55:14.842Z,96216.69
2023-01-25T06:58:24.527Z,96202.50
2023-01-25T07:01:33.566Z,96201.56
2023-01-25T07:04:41.814Z,96193.72
2023-01-25T07:07:50.031Z,96177.88
2023-01-25T07:11:01.446Z,96172.19
2023-01-25T07:14:11.041Z,96183.47
2023-01-25T07:17:19.334Z,96184.31
2023-01-25T07:20:28.696Z,96177.94
2023-01-25T07:23:38.009Z,96182.03
2023-01-25T07:26:47.500Z,96183.72
2023-01-25T07:29:57.011Z,96180.56
2023-01-25T07:33:05.333Z,96184.84
2023-01-25T07:36:13.828Z,96186.63
2023-01-25T07:39:22.136Z,96179.47
2023-01-25T07:42:30.342Z,96181.53
2023-01-25T07:45:55.408Z,96185.50
2023-01-25T07:49:03.669Z,96173.47
2023-01-25T07:52:11.858Z,96173.09
2023-01-25T07:55:20.202Z,96175.44
2023-01-25T07:58:28.372Z,96176.91
2023-01-25T08:01:39.004Z,96176.00
2023-01-25T08:04:47.365Z,96184.03
2023-01-25T08:07:55.659Z,96181.44
2023-01-25T08:11:13.104Z,96183.78
2023-01-25T08:14:21.491Z,96185.06
2023-01-25T08:17:33.225Z,96185.50
2023-01-25T08:20:41.630Z,96186.28
2023-01-25T08:23:50.019Z,96184.00
2023-01-25T08:26:58.266Z,96174.84
2023-01-25T08:30:08.340Z,96172.03
2023-01-25T08:33:18.232Z,96179.44
2023-01-25T08:36:30.590Z,96172.13
2023-01-25T08:39:39.115Z,96182.00
2023-01-25T08:42:47.881Z,96169.25
2023-01-25T08:45:58.527Z,96164.25
2023-01-25T08:49:10.766Z,96175.81
2023-01-25T08:52:21.804Z,96160.16
2023-01-25T08:55:30.371Z,96165.59
2023-01-25T08:58:40.726Z,96168.84
2023-01-25T09:01:49.156Z,96163.22
2023-01-25T09:04:58.922Z,96159.56
2023-01-25T09:08:11.223Z,96159.31
2023-01-25T09:11:22.175Z,96158.75
2023-01-25T09:14:31.721Z,96159.09
2023-01-25T09:17:40.113Z,96150.31
2023-01-25T09:20:50.112Z,96143.88
2023-01-25T09:24:07.521Z,96151.47
2023-01-25T09:27:16.366Z,96150.34
2023-01-25T09:30:37.348Z,96153.91
2023-01-25T09:33:58.590Z,96149.56
2023-01-25T09:37:08.501Z,96149.66
2023-01-25T09:40:23.828Z,96151.13
2023-01-25T09:43:56.787Z,96149.94
2023-01-25T09:47:15.550Z,96148.81
2023-01-25T09:50:38.315Z,96143.19
2023-01-25T09:53:52.519Z,96141.50
2023-01-25T09:57:01.288Z,96136.00
2023-01-25T10:00:22.668Z,96133.19
2023-01-25T10:03:44.309Z,96121.38
2023-01-25T10:07:01.254Z,96114.28
2023-01-25T10:10:18.531Z,96115.88
2023-01-25T10:13:32.650Z,96118.28
2023-01-25T10:16:59.375Z,96112.88
2023-01-25T10:20:24.121Z,96114.22
2023-01-25T10:23:54.213Z,96108.41
2023-01-25T10:27:27.317Z,96104.56
2023-01-25T10:30:44.310Z,96097.56
2023-01-25T10:33:54.368Z,96095.03
2023-01-25T10:37:12.462Z,96094.28
2023-01-25T10:40:28.581Z,96106.63
2023-01-25T10:43:38.379Z,96102.03
2023-01-25T10:46:57.810Z,96092.31
2023-01-25T10:50:07.166Z,96088.78
2023-01-25T10:53:42.178Z,96082.03
2023-01-25T10:56:51.389Z,96067.41
2023-01-25T11:00:10.550Z,96065.72
2023-01-25T11:03:22.753Z,96064.41
2023-01-25T11:06:35.998Z,96058.50
2023-01-25T11:09:44.134Z,96042.81
2023-01-25T11:13:21.103Z,96045.47
2023-01-25T11:16:41.815Z,96036.44
2023-01-25T11:19:50.005Z,96031.22
2023-01-25T11:22:58.826Z,96028.94
2023-01-25T11:26:16.797Z,96022.34
2023-01-25T11:29:26.399Z,96012.13
2023-01-25T11:32:36.577Z,96013.31
2023-01-25T11:36:06.630Z,96018.09
2023-01-25T11:39:40.557Z,96003.88
2023-01-25T11:43:08.792Z,95993.03
2023-01-25T11:46:40.509Z,96003.41
2023-01-25T11:50:04.958Z,95991.13
2023-01-25T11:53:36.148Z,95987.56
2023-01-25T11:56:59.025Z,95970.59
2023-01-25T12:00:42.672Z,95963.22
2023-01-25T12:04:39.593Z,95954.03
2023-01-25T12:08:05.450Z,95952.25
2023-01-25T12:11:30.271Z,95942.81
2023-01-25T12:15:11.045Z,95929.56
2023-01-25T12:18:48.284Z,95933.50
2023-01-25T12:22:20.075Z,95920.59
2023-01-25T12:25:39.350Z,95918.34
2023-01-25T12:28:52.997Z,95914.75
2023-01-25T12:32:12.326Z,95906.50
2023-01-25T12:35:34.202Z,95902.09
2023-01-25T12:38:53.957Z,95892.16
2023-01-25T12:42:16.303Z,95893.81
2023-01-25T12:45:29.185Z,95899.56
2023-01-25T12:48:45.422Z,95885.50
2023-01-25T12:52:00.406Z,95881.56
2023-01-25T12:55:15.895Z,95886.19
2023-01-25T12:58:38.574Z,95885.13
2023-01-25T13:01:54.766Z,95879.19
2023-01-25T13:05:17.906Z,95874.31
2023-01-25T13:08:44.804Z,95866.91
2023-01-25T13:11:53.257Z,95874.19
2023-01-25T13:15:03.020Z,95876.31
2023-01-25T13:18:38.230Z,95867.28
2023-01-25T13:21:48.998Z,95876.56
2023-01-25T13:25:21.328Z,95873.22
2023-01-25T13:28:45.780Z,95878.38
2023-01-25T13:31:58.830Z,95872.41
2023-01-25T13:35:38.304Z,95868.31
2023-01-25T13:38:46.571Z,95870.34
2023-01-25T13:42:00.902Z,95868.09
2023-01-25T13:45:20.855Z,95858.34
2023-01-25T13:48:33.128Z,95853.78
2023-01-25T13:51:44.018Z,95857.38
2023-01-25T13:54:57.601Z,95850.69
2023-01-25T13:58:19.493Z,95852.84
2023-01-25T14:01:32.349Z,95853.81
2023-01-25T14:04:41.958Z,95845.72
2023-01-25T14:07:57.206Z,95845.34
2023-01-25T14:11:06.931Z,95843.31
2023-01-25T14:14:25.298Z,95845.34
2023-01-25T14:17:33.692Z,95834.72
2023-01-25T14:20:44.696Z,95840.09
2023-01-25T14:23:53.298Z,95833.66
2023-01-25T14:27:01.558Z,95831.50
2023-01-25T14:30:21.870Z,95835.47
2023-01-25T14:33:35.669Z,95828.06
2023-01-25T14:36:45.439Z,95823.16
2023-01-25T14:39:54.193Z,95820.53
2023-01-25T14:43:03.256Z,95814.50
2023-01-25T14:46:32.689Z,95815.44
2023-01-25T14:49:41.071Z,95815.19
2023-01-25T14:52:51.104Z,95813.28
2023-01-25T14:56:00.174Z,95801.28
2023-01-25T14:59:23.806Z,95803.63
2023-01-25T15:02:40.471Z,95808.75
2023-01-25T15:05:50.016Z,95807.44
2023-01-25T15:08:59.607Z,95804.47
2023-01-25T15:12:29.758Z,95804.97
2023-01-25T15:15:50.549Z,95794.47
2023-01-25T15:18:58.788Z,95791.69
2023-01-25T15:22:10.230Z,95784.72
2023-01-25T15:25:24.514Z,95783.03
2023-01-25T15:28:34.452Z,95786.16
2023-01-25T15:31:43.495Z,95780.56
2023-01-25T15:34:52.065Z,95783.28
2023-01-25T15:38:00.335Z,95771.97
2023-01-25T15:41:11.111Z,95771.00
2023-01-25T15:44:20.555Z,95766.59
2023-01-25T15:47:29.044Z,95760.78
2023-01-25T15:50:37.552Z,95761.84
2023-01-25T15:53:46.839Z,95757.56
2023-01-25T15:57:00.302Z,95762.81
2023-01-25T16:00:18.425Z,95759.72
2023-01-25T16:03:26.634Z,95754.69
2023-01-25T16:06:41.999Z,95761.59
2023-01-25T16:09:50.243Z,95756.38
2023-01-25T16:12:59.945Z,95747.94
2023-01-25T16:16:19.831Z,95756.63
2023-01-25T16:19:29.744Z,95750.44
2023-01-25T16:22:38.106Z,95741.59
2023-01-25T16:25:49.861Z,95745.53
2023-01-25T16:28:59.318Z,95739.44
2023-01-25T16:32:07.935Z,95739.94
2023-01-25T16:35:16.239Z,95732.66
2023-01-25T16:38:25.494Z,95734.44
2023-01-25T16:41:34.479Z,95733.59
2023-01-25T16:44:45.161Z,95734.94
2023-01-25T16:47:53.803Z,95732.16
2023-01-25T16:51:02.418Z,95729.69
2023-01-25T16:54:13.029Z,95730.66
2023-01-25T16:57:21.242Z,95724.72
2023-01-25T17:00:30.781Z,95729.47
2023-01-25T17:03:39.215Z,95727.56
2023-01-25T17:06:50.647Z,95715.19
2023-01-25T17:09:58.994Z,95715.41
2023-01-25T17:13:08.690Z,95711.63
2023-01-25T17:16:18.903Z,95710.28
2023-01-25T17:19:27.122Z,95699.22
2023-01-25T17:22:37.483Z,95699.69
2023-01-25T17:25:45.683Z,95696.84
2023-01-25T17:28:55.826Z,95684.47
2023-01-25T17:32:05.586Z,95684.81
2023-01-25T17:35:13.739Z,95681.00
2023-01-25T17:38:22.126Z,95689.59
2023-01-25T17:41:30.523Z,95686.38
2023-01-25T17:44:38.783Z,95676.50
2023-01-25T17:47:48.262Z,95674.47
2023-01-25T17:51:05.936Z,95674.72
2023-01-25T17:54:15.052Z,95671.63
2023-01-25T17:57:24.008Z,95667.94
2023-01-25T18:00:32.642Z,95668.78
2023-01-25T18:03:42.750Z,95661.38
2023-01-25T18:06:50.971Z,95663.78
2023-01-25T18:09:59.177Z,95658.53
2023-01-25T18:13:07.927Z,95644.97
2023-01-25T18:16:18.762Z,95640.91
2023-01-25T18:19:31.140Z,95635.91
2023-01-25T18:22:39.431Z,95636.38
2023-01-25T18:25:47.633Z,95635.56
2023-01-25T18:29:00.843Z,95630.94
2023-01-25T18:32:09.212Z,95626.25
2023-01-25T18:35:18.903Z,95629.47
2023-01-25T18:38:28.127Z,95625.19
2023-01-25T18:41:36.791Z,95613.50
2023-01-25T18:44:48.204Z,95624.47
2023-01-25T18:47:56.477Z,95612.31
2023-01-25T18:51:09.924Z,95621.13
2023-01-25T18:54:18.028Z,95614.38
2023-01-25T18:57:26.237Z,95608.03
2023-01-25T19:00:35.905Z,95601.28
2023-01-25T19:03:45.462Z,95602.97
2023-01-25T19:06:57.469Z,95595.94
2023-01-25T19:10:06.787Z,95588.44
2023-01-25T19:13:15.314Z,95587.84
2023-01-25T19:16:25.185Z,95585.81
2023-01-25T19:19:34.118Z,95582.63
2023-01-25T19:22:44.742Z,95580.00
2023-01-25T19:25:56.945Z,95571.88
2023-01-25T19:29:05.890Z,95558.78
2023-01-25T19:32:14.294Z,95561.66
2023-01-25T19:35:22.746Z,95554.38
2023-01-25T19:38:33.477Z,95550.59
2023-01-25T19:41:41.856Z,95552.16
2023-01-25T19:44:50.069Z,95548.94
2023-01-25T19:47:58.383Z,95552.50
2023-01-25T19:51:12.285Z,95542.53
2023-01-25T19:54:24.268Z,95548.59
2023-01-25T19:57:33.464Z,95540.03
2023-01-25T20:00:41.694Z,95543.69
2023-01-25T20:03:51.302Z,95533.13
2023-01-25T20:06:59.513Z,95525.25
2023-01-25T20:10:11.703Z,95518.75
2023-01-25T20:13:19.996Z,95512.69
2023-01-25T20:16:30.446Z,95521.81
2023-01-25T20:19:38.774Z,95516.59
2023-01-25T20:22:49.228Z,95512.91
2023-01-25T20:26:00.245Z,95508.44
2023-01-25T20:29:10.086Z,95514.25
2023-01-25T20:32:31.768Z,95506.03
2023-01-25T20:35:41.096Z,95510.91
2023-01-25T20:38:49.469Z,95496.63
2023-01-25T20:41:59.079Z,95507.22
2023-01-25T20:45:11.415Z,95503.66
2023-01-25T20:48:21.769Z,95503.16
2023-01-25T20:51:30.023Z,95505.53
2023-01-25T20:54:38.266Z,95495.91
2023-01-25T20:57:47.839Z,95486.97
2023-01-25T21:00:56.773Z,95492.69
2023-01-25T21:04:09.560Z,95486.75
2023-01-25T21:07:17.977Z,95471.03
2023-01-25T21:10:26.755Z,95477.38
2023-01-25T21:13:36.720Z,95480.81
2023-01-25T21:16:44.967Z,95481.44
2023-01-25T21:19:53.134Z,95480.88
2023-01-25T21:23:01.393Z,95479.09
2023-01-25T21:26:15.040Z,95469.34
2023-01-25T21:29:25.263Z,95466.97
2023-01-25T21:32:33.527Z,95467.69
2023-01-25T21:35:41.718Z,95468.28
2023-01-25T21:38:52.588Z,95463.53
2023-01-25T21:42:00.775Z,95461.63
2023-01-25T21:45:30.040Z,95460.69
2023-01-25T21:48:55.720Z,95450.53
2023-01-25T21:52:03.899Z,95441.81
2023-01-25T21:55:12.066Z,95443.59
2023-01-25T21:58:20.216Z,95443.66
2023-01-25T22:01:29.849Z,95442.13
2023-01-25T22:04:39.209Z,95441.53
2023-01-25T22:07:47.453Z,95433.53
2023-01-25T22:11:02.882Z,95438.53
2023-01-25T22:14:11.104Z,95421.50
2023-01-25T22:17:22.531Z,95422.59
2023-01-25T22:20:30.726Z,95424.28
2023-01-25T22:23:38.914Z,95418.41
2023-01-25T22:27:04.367Z,95406.63
2023-01-25T22:30:14.011Z,95415.53
2023-01-25T22:33:23.992Z,95402.34
2023-01-25T22:36:33.201Z,95404.75
2023-01-25T22:39:41.420Z,95399.50
2023-01-25T22:42:49.625Z,95401.78
2023-01-25T22:45:57.812Z,95405.81
2023-01-25T22:49:10.772Z,95395.94
2023-01-25T22:52:18.983Z,95397.59
2023-01-25T22:55:27.592Z,95401.19
2023-01-25T22:58:38.365Z,95394.50
2023-01-25T23:01:47.381Z,95381.31
2023-01-25T23:04:57.716Z,95378.06
2023-01-25T23:08:06.507Z,95375.47
2023-01-25T23:11:18.826Z,95374.28
2023-01-25T23:14:44.519Z,95363.22
2023-01-25T23:18:10.254Z,95374.31
2023-01-25T23:21:23.667Z,95353.13
2023-01-25T23:24:32.260Z,95344.38
2023-01-25T23:27:41.105Z,95355.00
2023-01-25T23:30:49.599Z,95341.44
2023-01-25T23:34:01.115Z,95343.38
2023-01-25T23:37:10.836Z,95337.78
2023-01-25T23:40:19.541Z,95339.09
2023-01-25T23:43:28.055Z,95326.34
2023-01-25T23:46:36.530Z,95328.13
2023-01-25T23:49:45.000Z,95336.13
2023-01-25T23:52:54.881Z,95319.97
2023-01-25T23:56:06.449Z,95321.47
2023-01-25T23:59:15.089Z,95324.69
